Ana Sayfa
METAR-TAF:

METAR-TAF

Havaalanları :

Anvik, Alaska, Amerika Birleşik Devletleri

Enlem: 62-38-54N, Boylam: 160-11-23W, yükseklik: 94 m

Güncel hava durumu gözlemi

Rapor saat 10:30 UTC de 25 dakika önce yapıldı.
Rüzgar batı/güneybatıdan 8 kt
Sıcaklık -1°C
Nem 100%
Basınç 988 hPa
Görüş mesafesi: 16.1 km
1400 ft yükseklikte parçalı çok bulutlu
2500 ft yükseklikte çok bulutlu

METAR: PANV 121030Z AUTO 24008KT 10SM BKN014 OVC025 M01/M01 A2917 RMK AO2 UPE21SNB05E14 P0000 FZRANO TSNO

Saat: 02:55 (10:55 UTC)


TAF: eksik

4.000'den fazla havaalanı için hava durumu gözlemleri ve tahminleri (METAR ve TAF raporları).

Kullanılabilir istasyonlar harita üzerinde sarı ve kırmızı noktalarla gösterilir.

İstasyonun adını görmek için fareyi noktanın üzerinde gezdirin.

Sonrasında hava gözlem ve tahminlerini görmek için tıklayın.

Haritayı değiştirmek için: yaklaştırmak için siyah artı işaretli yeşil düğmeye ve uzaklaştırmak için de eksi işaretli düğmeye hızla tıklayın; bitişik haritalar için yeşil okları kullanın.


METAR-TAF: